createdAt,value
2022-10-01T00:01:16.944Z,15.54
2022-10-01T00:03:44.611Z,15.52
2022-10-01T00:06:17.838Z,15.52
2022-10-01T00:08:48.669Z,15.55
2022-10-01T00:11:21.330Z,15.53
2022-10-01T00:13:48.633Z,15.57
2022-10-01T00:16:18.714Z,15.60
2022-10-01T00:18:46.807Z,15.60
2022-10-01T00:21:16.878Z,15.53
2022-10-01T00:23:43.627Z,15.51
2022-10-01T00:26:18.625Z,15.53
2022-10-01T00:28:47.626Z,15.50
2022-10-01T00:31:16.042Z,15.51
2022-10-01T00:33:43.171Z,15.53
2022-10-01T00:36:11.692Z,15.53
2022-10-01T00:38:42.882Z,15.49
2022-10-01T00:41:10.184Z,15.48
2022-10-01T00:43:42.533Z,15.51
2022-10-01T00:46:26.809Z,15.50
2022-10-01T00:49:13.962Z,15.50
2022-10-01T00:51:48.828Z,15.49
2022-10-01T00:54:26.413Z,15.51
2022-10-01T00:56:57.481Z,15.52
2022-10-01T00:59:24.576Z,15.52
2022-10-01T01:01:51.779Z,15.52
2022-10-01T01:04:18.701Z,15.47
2022-10-01T01:06:57.558Z,15.46
2022-10-01T01:09:36.499Z,15.48
2022-10-01T01:12:38.224Z,15.51
2022-10-01T01:15:17.003Z,15.47
2022-10-01T01:17:51.181Z,15.46
2022-10-01T01:20:47.292Z,15.46
2022-10-01T01:23:16.851Z,15.48
2022-10-01T01:25:53.386Z,15.45
2022-10-01T01:28:31.766Z,15.45
2022-10-01T01:31:06.003Z,15.44
2022-10-01T01:33:37.236Z,15.45
2022-10-01T01:36:16.396Z,15.43
2022-10-01T01:38:51.706Z,15.45
2022-10-01T01:41:20.853Z,15.44
2022-10-01T01:43:51.970Z,15.45
2022-10-01T01:46:20.863Z,15.44
2022-10-01T01:48:53.257Z,15.48
2022-10-01T01:51:32.938Z,15.46
2022-10-01T01:54:00.321Z,15.51
2022-10-01T01:56:27.002Z,15.51
2022-10-01T01:58:54.107Z,15.47
2022-10-01T02:01:35.051Z,15.46
2022-10-01T02:04:25.344Z,15.45
2022-10-01T02:07:18.266Z,15.39
2022-10-01T02:09:50.044Z,15.41
2022-10-01T02:12:47.181Z,15.38
2022-10-01T02:15:55.237Z,15.43
2022-10-01T02:18:48.211Z,15.41
2022-10-01T02:21:31.577Z,15.43
2022-10-01T02:24:02.216Z,15.39
2022-10-01T02:26:31.495Z,15.40
2022-10-01T02:29:08.229Z,15.45
2022-10-01T02:31:35.890Z,15.43
2022-10-01T02:34:12.185Z,15.43
2022-10-01T02:36:41.176Z,15.41
2022-10-01T02:39:10.255Z,15.50
2022-10-01T02:41:37.296Z,15.58
2022-10-01T02:44:23.329Z,15.55
2022-10-01T02:47:26.477Z,15.52
2022-10-01T02:49:54.151Z,15.46
2022-10-01T02:52:37.839Z,15.43
2022-10-01T02:55:10.166Z,15.43
2022-10-01T02:57:37.188Z,15.40
2022-10-01T03:00:21.808Z,15.41
2022-10-01T03:02:49.649Z,15.38
2022-10-01T03:05:17.459Z,15.36
2022-10-01T03:07:43.995Z,15.39
2022-10-01T03:10:12.057Z,15.38
2022-10-01T03:12:45.204Z,15.34
2022-10-01T03:15:16.482Z,15.33
2022-10-01T03:17:43.213Z,15.34
2022-10-01T03:20:11.652Z,15.35
2022-10-01T03:22:38.543Z,15.33
2022-10-01T03:25:05.573Z,15.33
2022-10-01T03:27:32.309Z,15.32
2022-10-01T03:29:58.850Z,15.34
2022-10-01T03:32:25.459Z,15.31
2022-10-01T03:34:52.065Z,15.30
2022-10-01T03:37:18.832Z,15.32
2022-10-01T03:39:45.386Z,15.31
2022-10-01T03:42:11.989Z,15.29
2022-10-01T03:44:38.587Z,15.31
2022-10-01T03:47:05.225Z,15.29
2022-10-01T03:49:31.900Z,15.29
2022-10-01T03:51:59.193Z,15.32
2022-10-01T03:54:26.284Z,15.30
2022-10-01T03:56:52.772Z,15.29
2022-10-01T03:59:19.948Z,15.30
2022-10-01T04:01:46.851Z,15.28
2022-10-01T04:04:13.492Z,15.28
2022-10-01T04:06:40.376Z,15.29
2022-10-01T04:09:09.650Z,15.29
2022-10-01T04:11:37.444Z,15.30
2022-10-01T04:14:04.247Z,15.27
2022-10-01T04:16:30.989Z,15.25
2022-10-01T04:18:57.788Z,15.28
2022-10-01T04:21:24.515Z,15.26
2022-10-01T04:23:51.035Z,15.28
2022-10-01T04:26:19.106Z,15.30
2022-10-01T04:28:46.833Z,15.26
2022-10-01T04:31:26.373Z,15.27
2022-10-01T04:33:57.333Z,15.27
2022-10-01T04:36:25.677Z,15.29
2022-10-01T04:39:01.666Z,15.27
2022-10-01T04:41:30.856Z,15.28
2022-10-01T04:43:59.353Z,15.26
2022-10-01T04:46:26.161Z,15.26
2022-10-01T04:48:52.760Z,15.29
2022-10-01T04:51:19.489Z,15.28
2022-10-01T04:53:45.986Z,15.29
2022-10-01T04:56:12.635Z,15.28
2022-10-01T04:58:39.315Z,15.25
2022-10-01T05:01:06.195Z,15.26
2022-10-01T05:03:32.900Z,15.24
2022-10-01T05:05:59.419Z,15.26
2022-10-01T05:08:26.169Z,15.24
2022-10-01T05:10:53.205Z,15.25
2022-10-01T05:13:20.061Z,15.24
2022-10-01T05:15:49.286Z,15.24
2022-10-01T05:18:16.166Z,15.24
2022-10-01T05:20:42.925Z,15.23
2022-10-01T05:23:09.440Z,15.27
2022-10-01T05:25:36.045Z,15.27
2022-10-01T05:28:06.157Z,15.26
2022-10-01T05:30:34.018Z,15.24
2022-10-01T05:33:04.482Z,15.23
2022-10-01T05:35:31.962Z,15.23
2022-10-01T05:38:00.906Z,15.22
2022-10-01T05:40:28.697Z,15.23
2022-10-01T05:42:57.220Z,15.22
2022-10-01T05:45:24.984Z,15.30
2022-10-01T05:48:02.727Z,15.25
2022-10-01T05:50:31.773Z,15.21
2022-10-01T05:52:59.539Z,15.23
2022-10-01T05:55:27.353Z,15.25
2022-10-01T05:58:06.233Z,15.23
2022-10-01T06:00:34.318Z,15.25
2022-10-01T06:03:02.754Z,15.20
2022-10-01T06:05:31.083Z,15.26
2022-10-01T06:07:58.006Z,15.23
2022-10-01T06:10:25.267Z,15.23
2022-10-01T06:12:53.164Z,15.26
2022-10-01T06:15:19.935Z,15.27
2022-10-01T06:17:46.987Z,15.27
2022-10-01T06:20:19.098Z,15.30
2022-10-01T06:22:53.897Z,15.26
2022-10-01T06:25:20.710Z,15.26
2022-10-01T06:27:58.026Z,15.29
2022-10-01T06:30:29.168Z,15.33
2022-10-01T06:33:13.541Z,15.22
2022-10-01T06:35:45.733Z,15.26
2022-10-01T06:38:12.357Z,15.24
2022-10-01T06:40:39.801Z,15.30
2022-10-01T06:43:09.908Z,15.29
2022-10-01T06:45:39.330Z,15.25
2022-10-01T06:48:05.884Z,15.24
2022-10-01T06:50:33.983Z,15.25
2022-10-01T06:53:02.105Z,15.26
2022-10-01T06:55:32.401Z,15.32
2022-10-01T06:58:01.336Z,15.34
2022-10-01T07:00:30.480Z,15.28
2022-10-01T07:02:57.787Z,15.27
2022-10-01T07:05:25.508Z,15.25
2022-10-01T07:07:53.528Z,15.24
2022-10-01T07:10:21.316Z,15.24
2022-10-01T07:12:49.289Z,15.28
2022-10-01T07:15:18.300Z,15.29
2022-10-01T07:17:50.495Z,15.32
2022-10-01T07:20:19.900Z,15.32
2022-10-01T07:22:47.223Z,15.29
2022-10-01T07:25:14.519Z,15.28
2022-10-01T07:27:41.376Z,15.25
2022-10-01T07:30:08.597Z,15.28
2022-10-01T07:32:35.470Z,15.30
2022-10-01T07:35:02.423Z,15.26
2022-10-01T07:37:30.414Z,15.30
2022-10-01T07:39:57.176Z,15.31
2022-10-01T07:42:23.893Z,15.25
2022-10-01T07:44:50.600Z,15.26
2022-10-01T07:47:17.135Z,15.34
2022-10-01T07:49:43.716Z,15.30
2022-10-01T07:52:13.246Z,15.26
2022-10-01T07:54:40.281Z,15.25
2022-10-01T07:57:06.892Z,15.26
2022-10-01T07:59:33.485Z,15.28
2022-10-01T08:02:01.019Z,15.29
2022-10-01T08:04:46.381Z,15.34
2022-10-01T08:07:12.952Z,15.33
2022-10-01T08:09:39.794Z,15.28
2022-10-01T08:12:06.397Z,15.37
2022-10-01T08:14:32.943Z,15.31
2022-10-01T08:16:59.615Z,15.30
2022-10-01T08:19:44.635Z,15.34
2022-10-01T08:22:12.283Z,15.34
2022-10-01T08:24:39.773Z,15.37
2022-10-01T08:27:06.402Z,15.38
2022-10-01T08:29:33.943Z,15.42
2022-10-01T08:32:00.843Z,15.51
2022-10-01T08:34:27.612Z,15.48
2022-10-01T08:36:54.095Z,15.39
2022-10-01T08:39:21.055Z,15.41
2022-10-01T08:42:00.115Z,15.39
2022-10-01T08:44:41.249Z,15.40
2022-10-01T08:47:17.397Z,15.36
2022-10-01T08:49:59.330Z,15.35
2022-10-01T08:52:33.644Z,15.35
2022-10-01T08:55:21.142Z,15.32
2022-10-01T08:57:52.368Z,15.30
2022-10-01T09:00:37.497Z,15.44
2022-10-01T09:03:06.649Z,15.45
2022-10-01T09:05:57.815Z,15.41
2022-10-01T09:08:45.145Z,15.39
2022-10-01T09:11:52.334Z,15.41
2022-10-01T09:14:37.542Z,15.39
2022-10-01T09:17:14.802Z,15.45
2022-10-01T09:19:59.502Z,15.43
2022-10-01T09:22:41.819Z,15.48
2022-10-01T09:25:22.753Z,15.47
2022-10-01T09:27:51.916Z,15.56
2022-10-01T09:30:24.914Z,15.47
2022-10-01T09:33:10.239Z,15.43
2022-10-01T09:35:56.656Z,15.44
2022-10-01T09:38:33.260Z,15.44
2022-10-01T09:41:00.464Z,15.50
2022-10-01T09:43:29.871Z,15.47
2022-10-01T09:45:56.666Z,15.47
2022-10-01T09:48:43.214Z,15.39
2022-10-01T09:51:28.546Z,15.51
2022-10-01T09:54:05.042Z,15.48
2022-10-01T09:56:39.695Z,15.49
2022-10-01T09:59:17.310Z,15.47
2022-10-01T10:01:51.010Z,15.48
2022-10-01T10:04:23.652Z,15.46
2022-10-01T10:07:02.074Z,15.52
2022-10-01T10:09:32.905Z,15.46
2022-10-01T10:12:00.213Z,15.51
2022-10-01T10:14:33.739Z,15.50
2022-10-01T10:17:07.149Z,15.50
2022-10-01T10:19:34.037Z,15.57
2022-10-01T10:22:12.517Z,15.70
2022-10-01T10:24:39.159Z,15.68
2022-10-01T10:27:20.305Z,15.66
2022-10-01T10:29:47.021Z,15.63
2022-10-01T10:32:23.881Z,15.59
2022-10-01T10:34:52.229Z,15.59
2022-10-01T10:37:26.274Z,15.60
2022-10-01T10:39:54.030Z,15.63
2022-10-01T10:42:23.076Z,15.63
2022-10-01T10:44:52.872Z,15.61
2022-10-01T10:47:21.135Z,15.67
2022-10-01T10:50:04.958Z,15.73
2022-10-01T10:52:36.428Z,15.73
2022-10-01T10:55:30.297Z,15.67
2022-10-01T10:58:14.904Z,15.72
2022-10-01T11:00:50.421Z,15.62
2022-10-01T11:03:39.537Z,15.73
2022-10-01T11:06:14.850Z,15.67
2022-10-01T11:08:43.053Z,15.72
2022-10-01T11:11:46.051Z,15.72
2022-10-01T11:14:28.650Z,15.77
2022-10-01T11:17:00.901Z,15.85
2022-10-01T11:19:51.742Z,15.82
2022-10-01T11:22:43.425Z,15.77
2022-10-01T11:25:23.015Z,15.82
2022-10-01T11:28:05.839Z,15.89
2022-10-01T11:30:46.007Z,15.86
2022-10-01T11:33:34.326Z,15.87
2022-10-01T11:36:04.540Z,15.84
2022-10-01T11:38:49.781Z,15.93
2022-10-01T11:41:28.781Z,15.86
2022-10-01T11:43:58.197Z,15.89
2022-10-01T11:46:34.481Z,15.95
2022-10-01T11:49:45.653Z,15.91
2022-10-01T11:52:23.615Z,15.86
2022-10-01T11:55:33.274Z,15.88
2022-10-01T11:58:43.407Z,15.94
2022-10-01T12:01:19.584Z,15.89
2022-10-01T12:03:58.175Z,15.91
2022-10-01T12:06:58.133Z,15.95
2022-10-01T12:09:34.862Z,15.94
2022-10-01T12:12:09.216Z,15.96
2022-10-01T12:15:30.465Z,15.98
2022-10-01T12:18:16.143Z,16.03
2022-10-01T12:20:53.604Z,15.95
2022-10-01T12:23:24.911Z,15.99
2022-10-01T12:26:04.366Z,15.98
2022-10-01T12:28:44.948Z,16.01
2022-10-01T12:31:34.835Z,15.98
2022-10-01T12:34:22.470Z,15.98
2022-10-01T12:36:58.184Z,16.07
2022-10-01T12:39:51.479Z,16.05
2022-10-01T12:42:49.101Z,16.08
2022-10-01T12:45:34.338Z,16.08
2022-10-01T12:48:18.793Z,16.13
2022-10-01T12:50:51.319Z,16.18
2022-10-01T12:53:39.353Z,16.21
2022-10-01T12:56:30.936Z,16.15
2022-10-01T12:59:20.146Z,16.28
2022-10-01T13:02:23.430Z,16.24
2022-10-01T13:05:09.662Z,16.31
2022-10-01T13:07:52.589Z,16.29
2022-10-01T13:10:41.536Z,16.30
2022-10-01T13:13:32.857Z,16.29
2022-10-01T13:16:14.200Z,16.34
2022-10-01T13:18:43.545Z,16.30
2022-10-01T13:21:24.697Z,16.34
2022-10-01T13:24:17.296Z,16.38
2022-10-01T13:26:56.476Z,16.36
2022-10-01T13:30:01.982Z,16.34
2022-10-01T13:32:52.828Z,16.38
2022-10-01T13:35:30.434Z,16.33
2022-10-01T13:37:59.793Z,16.29
2022-10-01T13:40:32.046Z,16.42
2022-10-01T13:43:08.084Z,16.47
2022-10-01T13:45:37.575Z,16.41
2022-10-01T13:48:16.313Z,16.38
2022-10-01T13:51:14.142Z,16.47
2022-10-01T13:53:43.673Z,16.42
2022-10-01T13:56:14.377Z,16.46
2022-10-01T13:58:44.248Z,16.47
2022-10-01T14:01:23.635Z,16.33
2022-10-01T14:03:50.974Z,16.32
2022-10-01T14:06:43.832Z,16.47
2022-10-01T14:09:31.276Z,16.53
2022-10-01T14:12:32.284Z,16.58
2022-10-01T14:15:20.243Z,16.61
2022-10-01T14:17:52.506Z,16.57
2022-10-01T14:20:30.598Z,16.60
2022-10-01T14:23:11.736Z,16.65
2022-10-01T14:25:53.362Z,16.72
2022-10-01T14:28:44.171Z,16.61
2022-10-01T14:32:07.753Z,16.60
2022-10-01T14:34:59.103Z,16.73
2022-10-01T14:37:27.358Z,16.69
2022-10-01T14:40:19.340Z,16.74
2022-10-01T14:43:03.901Z,16.75
2022-10-01T14:45:30.804Z,16.80
2022-10-01T14:48:05.146Z,16.76
2022-10-01T14:50:34.949Z,16.72
2022-10-01T14:53:01.740Z,16.79
2022-10-01T14:55:29.393Z,16.76
2022-10-01T14:57:57.625Z,16.73
2022-10-01T15:00:27.772Z,16.80
2022-10-01T15:03:03.813Z,16.75
2022-10-01T15:05:33.523Z,16.73
2022-10-01T15:08:35.863Z,16.73
2022-10-01T15:11:06.536Z,16.68
2022-10-01T15:13:39.707Z,16.72
2022-10-01T15:16:16.362Z,16.73
2022-10-01T15:18:53.304Z,16.70
2022-10-01T15:21:26.705Z,16.69
2022-10-01T15:23:53.944Z,16.67
2022-10-01T15:26:25.192Z,16.67
2022-10-01T15:29:05.939Z,16.65
2022-10-01T15:31:34.068Z,16.66
2022-10-01T15:34:03.990Z,16.62
2022-10-01T15:36:31.588Z,16.60
2022-10-01T15:38:59.069Z,16.62
2022-10-01T15:41:32.555Z,16.64
2022-10-01T15:44:03.289Z,16.62
2022-10-01T15:46:34.099Z,16.61
2022-10-01T15:49:13.086Z,16.59
2022-10-01T15:52:13.169Z,16.61
2022-10-01T15:54:41.794Z,16.57
2022-10-01T15:57:15.654Z,16.60
2022-10-01T15:59:42.319Z,16.61
2022-10-01T16:02:18.756Z,16.62
2022-10-01T16:04:46.815Z,16.60
2022-10-01T16:07:26.250Z,16.62
2022-10-01T16:09:55.612Z,16.61
2022-10-01T16:12:23.000Z,16.59
2022-10-01T16:15:06.966Z,16.55
2022-10-01T16:17:35.305Z,16.56
2022-10-01T16:20:22.210Z,16.56
2022-10-01T16:22:48.880Z,16.57
2022-10-01T16:25:27.364Z,16.58
2022-10-01T16:27:56.472Z,16.49
2022-10-01T16:30:27.569Z,16.49
2022-10-01T16:32:55.517Z,16.53
2022-10-01T16:35:25.039Z,16.55
2022-10-01T16:37:54.864Z,16.51
2022-10-01T16:40:24.477Z,16.53
2022-10-01T16:42:52.270Z,16.59
2022-10-01T16:45:22.752Z,16.49
2022-10-01T16:47:49.318Z,16.48
2022-10-01T16:50:18.847Z,16.48
2022-10-01T16:52:45.825Z,16.46
2022-10-01T16:55:32.320Z,16.44
2022-10-01T16:57:59.018Z,16.46
2022-10-01T17:00:27.839Z,16.40
2022-10-01T17:02:55.841Z,16.46
2022-10-01T17:05:31.613Z,16.45
2022-10-01T17:08:00.866Z,16.42
2022-10-01T17:10:32.049Z,16.43
2022-10-01T17:12:59.605Z,16.42
2022-10-01T17:15:28.289Z,16.41
2022-10-01T17:17:56.889Z,16.44
2022-10-01T17:20:26.453Z,16.43
2022-10-01T17:22:53.264Z,16.41
2022-10-01T17:25:34.435Z,16.40
2022-10-01T17:28:03.750Z,16.45
2022-10-01T17:30:31.464Z,16.49
2022-10-01T17:33:01.613Z,16.43
2022-10-01T17:35:30.821Z,16.38
2022-10-01T17:37:58.431Z,16.38
2022-10-01T17:40:25.743Z,16.37
2022-10-01T17:42:52.808Z,16.39
2022-10-01T17:45:19.549Z,16.36
2022-10-01T17:47:48.451Z,16.38
2022-10-01T17:50:16.433Z,16.36
2022-10-01T17:52:43.160Z,16.39
2022-10-01T17:55:12.086Z,16.37
2022-10-01T17:57:39.051Z,16.39
2022-10-01T18:00:06.666Z,16.33
2022-10-01T18:02:43.282Z,16.32
2022-10-01T18:05:13.971Z,16.33
2022-10-01T18:07:41.976Z,16.32
2022-10-01T18:10:11.966Z,16.32
2022-10-01T18:12:39.169Z,16.32
2022-10-01T18:15:06.343Z,16.32
2022-10-01T18:17:33.524Z,16.32
2022-10-01T18:20:02.012Z,16.31
2022-10-01T18:22:28.671Z,16.28
2022-10-01T18:24:55.393Z,16.26
2022-10-01T18:27:22.410Z,16.29
2022-10-01T18:29:49.408Z,16.31
2022-10-01T18:32:31.232Z,16.27
2022-10-01T18:34:59.095Z,16.24
2022-10-01T18:37:37.750Z,16.23
2022-10-01T18:40:13.111Z,16.24
2022-10-01T18:42:57.829Z,16.19
2022-10-01T18:45:44.506Z,16.18
2022-10-01T18:48:32.656Z,16.20
2022-10-01T18:51:02.184Z,16.20
2022-10-01T18:53:47.998Z,16.20
2022-10-01T18:56:35.840Z,16.20
2022-10-01T18:59:21.134Z,16.17
2022-10-01T19:01:54.131Z,16.17
2022-10-01T19:04:26.752Z,16.21
2022-10-01T19:07:09.489Z,16.20
2022-10-01T19:09:44.874Z,16.18
2022-10-01T19:12:39.410Z,16.21
2022-10-01T19:15:13.700Z,16.18
2022-10-01T19:17:50.978Z,16.21
2022-10-01T19:20:37.870Z,16.22
2022-10-01T19:23:21.348Z,16.20
2022-10-01T19:25:54.150Z,16.17
2022-10-01T19:28:42.838Z,16.16
2022-10-01T19:31:19.786Z,16.19
2022-10-01T19:33:56.300Z,16.19
2022-10-01T19:36:36.849Z,16.15
2022-10-01T19:39:10.858Z,16.18
2022-10-01T19:41:59.621Z,16.18
2022-10-01T19:44:29.699Z,16.17
2022-10-01T19:47:05.871Z,16.22
2022-10-01T19:49:36.794Z,16.19
2022-10-01T19:52:16.733Z,16.17
2022-10-01T19:54:48.631Z,16.18
2022-10-01T19:57:22.386Z,16.18
2022-10-01T19:59:50.680Z,16.31
2022-10-01T20:02:26.338Z,16.35
2022-10-01T20:05:01.663Z,16.47
2022-10-01T20:07:43.977Z,16.53
2022-10-01T20:10:13.755Z,16.61
2022-10-01T20:12:47.748Z,16.75
2022-10-01T20:15:19.860Z,16.79
2022-10-01T20:17:55.535Z,16.78
2022-10-01T20:20:31.338Z,16.91
2022-10-01T20:23:12.483Z,16.88
2022-10-01T20:26:05.980Z,16.95
2022-10-01T20:28:36.413Z,16.91
2022-10-01T20:31:26.342Z,17.01
2022-10-01T20:34:14.018Z,17.05
2022-10-01T20:37:07.978Z,17.02
2022-10-01T20:39:41.656Z,17.01
2022-10-01T20:42:18.108Z,17.05
2022-10-01T20:44:45.411Z,17.08
2022-10-01T20:47:21.043Z,17.05
2022-10-01T20:49:58.211Z,17.14
2022-10-01T20:53:03.821Z,17.15
2022-10-01T20:55:41.418Z,17.16
2022-10-01T20:58:31.266Z,17.13
2022-10-01T21:01:20.651Z,17.22
2022-10-01T21:03:53.724Z,17.17
2022-10-01T21:06:30.233Z,17.02
2022-10-01T21:09:02.711Z,16.91
2022-10-01T21:11:35.948Z,16.90
2022-10-01T21:14:38.026Z,16.83
2022-10-01T21:17:32.051Z,16.81
2022-10-01T21:20:32.664Z,16.79
2022-10-01T21:23:30.210Z,16.76
2022-10-01T21:26:24.372Z,16.73
2022-10-01T21:29:19.350Z,16.70
2022-10-01T21:32:03.883Z,16.70
2022-10-01T21:34:59.223Z,16.65
2022-10-01T21:37:41.433Z,16.66
2022-10-01T21:40:11.405Z,16.67
2022-10-01T21:43:10.269Z,16.65
2022-10-01T21:45:57.396Z,16.62
2022-10-01T21:48:58.419Z,16.62
2022-10-01T21:51:42.969Z,16.59
2022-10-01T21:54:24.485Z,16.51
2022-10-01T21:56:51.046Z,16.53
2022-10-01T21:59:45.639Z,16.51
2022-10-01T22:02:48.005Z,16.48
2022-10-01T22:05:39.390Z,16.47
2022-10-01T22:08:20.861Z,16.45
2022-10-01T22:10:51.354Z,16.45
2022-10-01T22:13:24.528Z,16.44
2022-10-01T22:15:56.623Z,16.41
2022-10-01T22:18:45.859Z,16.43
2022-10-01T22:21:17.369Z,16.43
2022-10-01T22:23:57.870Z,16.50
2022-10-01T22:26:30.274Z,16.45
2022-10-01T22:28:59.218Z,16.43
2022-10-01T22:31:30.563Z,16.51
2022-10-01T22:34:05.486Z,16.46
2022-10-01T22:36:55.193Z,16.45
2022-10-01T22:39:28.557Z,16.42
2022-10-01T22:42:26.900Z,16.42
2022-10-01T22:44:53.534Z,16.41
2022-10-01T22:47:37.865Z,16.40
2022-10-01T22:50:29.406Z,16.45
2022-10-01T22:53:08.742Z,16.44
2022-10-01T22:55:49.007Z,16.47
2022-10-01T22:58:37.397Z,16.53
2022-10-01T23:01:17.222Z,16.52
2022-10-01T23:03:49.570Z,16.60
2022-10-01T23:06:43.275Z,16.50
2022-10-01T23:09:22.902Z,16.54
2022-10-01T23:11:55.187Z,16.59
2022-10-01T23:14:30.618Z,16.51
2022-10-01T23:17:06.041Z,16.58
2022-10-01T23:19:40.258Z,16.57
2022-10-01T23:22:28.579Z,16.56
2022-10-01T23:25:36.869Z,16.58
2022-10-01T23:28:36.098Z,16.63
2022-10-01T23:31:21.234Z,16.51
2022-10-01T23:33:59.216Z,16.51
2022-10-01T23:36:38.001Z,16.53
2022-10-01T23:39:34.202Z,16.55
2022-10-01T23:42:13.804Z,16.53
2022-10-01T23:45:05.488Z,16.58
2022-10-01T23:48:11.383Z,16.61
2022-10-01T23:50:45.089Z,16.57
2022-10-01T23:53:22.754Z,16.51
2022-10-01T23:56:30.329Z,16.54
2022-10-01T23:59:05.669Z,16.57
